createdAt,value
2019-01-08T00:00:03.778Z,92.42
2019-01-08T00:03:07.218Z,92.80
2019-01-08T00:06:07.525Z,93.05
2019-01-08T00:09:07.597Z,93.38
2019-01-08T00:12:06.953Z,93.72
2019-01-08T00:15:06.915Z,93.48
2019-01-08T00:18:07.178Z,93.13
2019-01-08T00:20:56.067Z,92.83
2019-01-08T00:23:55.459Z,93.01
2019-01-08T00:26:35.246Z,93.00
2019-01-08T00:29:34.864Z,92.57
2019-01-08T00:32:13.802Z,92.25
2019-01-08T00:35:14.132Z,92.71
2019-01-08T00:37:41.803Z,93.06
2019-01-08T00:40:21.487Z,93.11
2019-01-08T00:43:20.929Z,92.86
2019-01-08T00:45:48.787Z,92.71
2019-01-08T00:48:48.478Z,92.21
2019-01-08T00:51:16.175Z,91.99
2019-01-08T00:53:56.206Z,92.10
2019-01-08T00:56:55.935Z,92.29
2019-01-08T00:59:35.692Z,92.13
2019-01-08T01:02:35.439Z,91.76
2019-01-08T01:05:22.536Z,91.75
2019-01-08T01:07:50.160Z,91.64
2019-01-08T01:10:49.613Z,91.43
2019-01-08T01:13:17.269Z,91.47
2019-01-08T01:16:17.095Z,91.95
2019-01-08T01:19:17.141Z,91.86
2019-01-08T01:25:17.504Z,91.80
2019-01-08T01:28:17.755Z,91.75
2019-01-08T01:30:45.432Z,92.19
2019-01-08T01:36:21.886Z,92.61
2019-01-08T01:41:51.129Z,92.23
2019-01-08T01:44:50.502Z,92.21
2019-01-08T01:47:29.626Z,92.15
2019-01-08T01:49:57.620Z,91.64
2019-01-08T01:52:46.553Z,91.87
2019-01-08T01:55:46.045Z,92.32
2019-01-08T01:58:46.339Z,92.35
2019-01-08T02:01:46.410Z,92.24
2019-01-08T02:04:25.464Z,92.23
2019-01-08T02:07:25.640Z,92.45
2019-01-08T02:10:05.526Z,92.50
2019-01-08T02:13:05.099Z,92.71
2019-01-08T02:18:46.614Z,92.40
2019-01-08T02:21:46.158Z,92.72
2019-01-08T02:24:46.437Z,92.66
2019-01-08T02:27:46.682Z,92.36
2019-01-08T02:37:17.755Z,92.46
2019-01-08T02:40:18.111Z,92.56
2019-01-08T02:43:18.477Z,93.11
2019-01-08T02:46:18.924Z,92.85
2019-01-08T02:49:19.297Z,93.18
2019-01-08T02:52:19.595Z,93.38
2019-01-08T02:54:59.608Z,93.33
2019-01-08T02:57:48.718Z,93.96
2019-01-08T03:03:38.430Z,94.10
2019-01-08T03:09:39.901Z,93.58
2019-01-08T03:12:41.331Z,93.87
2019-01-08T03:18:56.152Z,94.08
2019-01-08T03:21:56.417Z,94.14
2019-01-08T03:24:55.873Z,94.48
2019-01-08T03:27:56.236Z,94.90
2019-01-08T03:30:56.355Z,94.50
2019-01-08T03:33:56.236Z,95.03
2019-01-08T03:36:57.026Z,95.17
2019-01-08T03:39:57.265Z,94.76
2019-01-08T03:42:44.542Z,95.05
2019-01-08T03:45:44.507Z,94.82
2019-01-08T03:48:45.972Z,95.04
2019-01-08T03:51:46.103Z,95.10
2019-01-08T03:54:46.246Z,95.44
2019-01-08T03:57:45.686Z,95.35
2019-01-08T04:00:45.917Z,95.48
2019-01-08T04:03:45.959Z,95.50
2019-01-08T04:06:46.415Z,95.39
2019-01-08T04:09:27.183Z,95.05
2019-01-08T04:12:27.226Z,95.31
2019-01-08T04:15:14.506Z,95.60
2019-01-08T04:24:19.791Z,95.96
2019-01-08T04:30:21.305Z,95.39
2019-01-08T04:36:22.938Z,95.16
2019-01-08T04:48:27.718Z,93.86
2019-01-08T04:51:27.947Z,93.89
2019-01-08T04:56:58.247Z,94.25
2019-01-08T04:59:59.035Z,93.57
2019-01-08T05:05:30.414Z,93.95
2019-01-08T05:11:32.972Z,93.66
2019-01-08T05:14:33.271Z,93.38
2019-01-08T05:17:33.551Z,93.70
2019-01-08T05:20:33.536Z,93.51
2019-01-08T05:23:01.215Z,93.98
2019-01-08T05:25:40.667Z,93.79
2019-01-08T05:28:22.288Z,93.64
2019-01-08T05:31:03.919Z,93.64
2019-01-08T05:33:44.146Z,93.49
2019-01-08T05:39:44.654Z,93.31
2019-01-08T05:42:44.138Z,93.55
2019-01-08T05:45:44.274Z,93.34
2019-01-08T05:48:33.383Z,93.23
2019-01-08T05:51:32.787Z,92.93
2019-01-08T05:54:32.776Z,92.96
2019-01-08T05:57:00.667Z,93.13
2019-01-08T06:00:00.924Z,93.35
2019-01-08T06:02:40.723Z,93.62
2019-01-08T06:05:08.699Z,93.68
2019-01-08T06:08:08.481Z,93.57
2019-01-08T06:10:36.145Z,93.66
2019-01-08T06:13:35.661Z,93.50
2019-01-08T06:16:03.270Z,93.63
2019-01-08T06:18:53.586Z,94.08
2019-01-08T06:21:53.889Z,94.11
2019-01-08T06:24:33.497Z,94.01
2019-01-08T06:27:33.113Z,94.09
2019-01-08T06:30:33.338Z,93.97
2019-01-08T06:33:32.795Z,94.24
2019-01-08T06:36:33.063Z,94.24
2019-01-08T06:42:37.526Z,93.76
2019-01-08T06:45:37.742Z,93.93
2019-01-08T06:48:05.551Z,94.03
2019-01-08T06:51:05.904Z,94.08
2019-01-08T06:54:05.911Z,94.03
2019-01-08T06:57:06.124Z,94.36
2019-01-08T07:00:06.380Z,94.57
2019-01-08T07:03:06.564Z,94.20
2019-01-08T07:05:45.579Z,94.04
2019-01-08T07:08:44.927Z,94.02
2019-01-08T07:11:44.877Z,93.68
2019-01-08T07:17:22.095Z,93.62
2019-01-08T07:19:50.153Z,93.90
2019-01-08T07:22:49.759Z,93.67
2019-01-08T07:25:17.443Z,93.48
2019-01-08T07:28:06.352Z,93.28
2019-01-08T07:30:41.268Z,93.01
2019-01-08T07:36:18.253Z,92.47
2019-01-08T07:39:18.348Z,91.67
2019-01-08T07:42:05.422Z,91.57
2019-01-08T07:45:05.269Z,91.87
2019-01-08T07:47:33.031Z,91.77
2019-01-08T07:52:41.248Z,91.37
2019-01-08T07:55:41.191Z,91.74
2019-01-08T07:58:41.393Z,91.42
2019-01-08T08:01:09.214Z,91.11
2019-01-08T08:04:10.429Z,91.20
2019-01-08T08:06:38.129Z,91.24
2019-01-08T08:09:25.310Z,90.95
2019-01-08T08:15:19.029Z,91.04
2019-01-08T08:18:19.191Z,90.89
2019-01-08T08:21:19.276Z,90.79
2019-01-08T08:27:11.451Z,91.19
2019-01-08T08:30:10.929Z,91.21
2019-01-08T08:33:11.370Z,91.21
2019-01-08T08:36:00.387Z,90.83
2019-01-08T08:39:00.530Z,91.45
2019-01-08T08:41:28.497Z,91.66
2019-01-08T08:44:17.472Z,91.71
2019-01-08T08:47:17.654Z,91.56
2019-01-08T08:49:45.287Z,91.51
2019-01-08T08:52:32.788Z,91.24
2019-01-08T08:55:02.292Z,90.78
2019-01-08T08:58:02.071Z,90.85
2019-01-08T09:00:43.630Z,91.22
2019-01-08T09:03:43.305Z,91.09
2019-01-08T09:09:32.649Z,90.73
2019-01-08T09:12:21.627Z,90.63
2019-01-08T09:15:24.469Z,89.76
2019-01-08T09:18:11.857Z,89.61
2019-01-08T09:21:12.042Z,89.76
2019-01-08T09:24:12.480Z,89.73
2019-01-08T09:27:12.577Z,90.03
2019-01-08T09:32:41.766Z,89.29
2019-01-08T09:35:23.601Z,88.92
2019-01-08T09:38:22.986Z,88.74
2019-01-08T09:40:50.788Z,88.78
2019-01-08T09:43:52.103Z,88.19
2019-01-08T09:46:39.199Z,87.78
2019-01-08T09:49:28.167Z,87.79
2019-01-08T09:52:27.552Z,87.25
2019-01-08T09:58:32.651Z,86.65
2019-01-08T10:01:00.374Z,87.22
2019-01-08T10:04:00.441Z,87.09
2019-01-08T10:06:28.332Z,87.72
2019-01-08T10:09:27.694Z,88.51
2019-01-08T10:14:59.220Z,88.43
2019-01-08T10:17:58.501Z,88.95
2019-01-08T10:20:58.670Z,88.95
2019-01-08T10:23:58.738Z,89.27
2019-01-08T10:26:58.940Z,89.07
2019-01-08T10:33:00.359Z,88.79
2019-01-08T10:35:39.377Z,88.76
2019-01-08T10:41:19.760Z,89.42
2019-01-08T10:44:19.527Z,89.54
2019-01-08T10:47:18.840Z,89.03
2019-01-08T10:49:58.015Z,89.35
2019-01-08T10:59:07.690Z,89.08
2019-01-08T11:05:06.495Z,89.52
2019-01-08T11:08:06.724Z,89.04
2019-01-08T11:11:07.014Z,88.62
2019-01-08T11:14:06.466Z,88.80
2019-01-08T11:16:46.101Z,89.08
2019-01-08T11:19:48.661Z,89.26
2019-01-08T11:22:47.999Z,89.25
2019-01-08T11:25:37.010Z,89.30
2019-01-08T11:28:50.660Z,89.43
2019-01-08T11:31:50.899Z,89.07
2019-01-08T11:34:29.965Z,89.05
2019-01-08T11:39:59.376Z,89.61
2019-01-08T11:43:01.251Z,89.05
2019-01-08T11:46:01.451Z,88.83
2019-01-08T11:49:01.761Z,88.10
2019-01-08T11:51:43.274Z,87.46
2019-01-08T11:54:43.078Z,87.53
2019-01-08T11:57:42.499Z,88.47
2019-01-08T12:00:30.276Z,89.01
2019-01-08T12:03:30.622Z,88.52
2019-01-08T12:08:49.723Z,87.79
2019-01-08T12:11:49.861Z,87.17
2019-01-08T12:14:17.719Z,87.44
2019-01-08T12:16:56.922Z,87.44
2019-01-08T12:19:57.323Z,88.25
2019-01-08T12:22:57.379Z,87.93
2019-01-08T12:25:57.515Z,88.04
2019-01-08T12:28:25.462Z,87.52
2019-01-08T12:34:27.076Z,87.79
2019-01-08T12:40:10.855Z,87.66
2019-01-08T12:43:11.108Z,87.18
2019-01-08T12:49:11.022Z,82.53
2019-01-08T12:54:51.610Z,79.73
2019-01-08T12:57:40.644Z,80.17
2019-01-08T13:00:09.167Z,80.05
2019-01-08T13:03:09.223Z,78.96
2019-01-08T13:05:49.014Z,78.57
2019-01-08T13:08:48.681Z,77.35
2019-01-08T13:11:48.021Z,76.21
2019-01-08T13:14:48.200Z,76.59
2019-01-08T13:17:48.468Z,76.61
2019-01-08T13:20:16.331Z,76.56
2019-01-08T13:23:16.757Z,77.23
2019-01-08T13:28:47.224Z,77.64
2019-01-08T13:31:15.024Z,77.22
2019-01-08T13:36:43.815Z,75.61
2019-01-08T13:39:32.953Z,76.30
2019-01-08T13:42:12.143Z,77.98
2019-01-08T13:44:39.894Z,77.86
2019-01-08T13:50:19.470Z,78.68
2019-01-08T13:53:19.657Z,80.31
2019-01-08T13:55:47.495Z,79.49
2019-01-08T13:58:26.688Z,79.81
2019-01-08T14:00:54.423Z,78.67
2019-01-08T14:03:36.463Z,77.50
2019-01-08T14:06:15.678Z,77.14
2019-01-08T14:08:55.246Z,76.63
2019-01-08T14:11:44.353Z,76.73
2019-01-08T14:14:33.253Z,76.71
2019-01-08T14:20:02.415Z,77.68
2019-01-08T14:25:13.648Z,78.00
2019-01-08T14:28:13.769Z,78.66
2019-01-08T14:31:13.775Z,79.10
2019-01-08T14:33:41.522Z,79.56
2019-01-08T14:36:09.184Z,78.82
2019-01-08T14:38:36.773Z,80.53
2019-01-08T14:41:04.464Z,81.04
2019-01-08T14:43:32.060Z,82.03
2019-01-08T14:45:59.756Z,83.68
2019-01-08T14:48:27.485Z,83.36
2019-01-08T14:51:07.745Z,83.95
2019-01-08T14:53:35.534Z,83.92
2019-01-08T14:56:03.427Z,84.58
2019-01-08T14:58:31.266Z,85.19
2019-01-08T15:01:31.446Z,84.70
2019-01-08T15:04:10.778Z,84.92
2019-01-08T15:06:38.541Z,85.73
2019-01-08T15:09:38.848Z,86.08
2019-01-08T15:12:06.591Z,86.08
2019-01-08T15:15:06.156Z,87.06
2019-01-08T15:17:33.929Z,87.12
2019-01-08T15:20:28.001Z,87.30
2019-01-08T15:23:27.884Z,87.60
2019-01-08T15:26:27.209Z,87.22
2019-01-08T15:32:28.780Z,87.82
2019-01-08T15:38:19.334Z,89.42
2019-01-08T15:44:20.895Z,89.33
2019-01-08T15:53:24.608Z,88.53
2019-01-08T15:59:13.426Z,89.45
2019-01-08T16:02:13.444Z,90.28
2019-01-08T16:05:13.760Z,90.62
2019-01-08T16:11:04.019Z,91.19
2019-01-08T16:14:03.809Z,91.42
2019-01-08T16:17:04.072Z,91.27
2019-01-08T16:19:52.995Z,91.91
2019-01-08T16:22:53.283Z,91.99
2019-01-08T16:25:52.472Z,92.26
2019-01-08T16:28:52.691Z,92.24
2019-01-08T16:31:52.839Z,92.38
2019-01-08T16:34:53.125Z,91.69
2019-01-08T16:37:53.267Z,91.70
2019-01-08T16:40:21.007Z,91.52
2019-01-08T16:43:20.606Z,90.86
2019-01-08T16:45:48.358Z,91.14
2019-01-08T16:48:48.714Z,91.85
2019-01-08T16:51:16.574Z,92.30
2019-01-08T16:54:10.300Z,92.96
2019-01-08T16:56:59.401Z,93.08
2019-01-08T16:59:40.019Z,93.27
2019-01-08T17:02:07.670Z,93.10
2019-01-08T17:04:56.575Z,97.53
2019-01-08T17:07:56.472Z,97.72
2019-01-08T17:10:24.372Z,96.52
2019-01-08T17:13:04.401Z,95.12
2019-01-08T17:18:35.005Z,94.19
2019-01-08T17:21:34.565Z,95.39
2019-01-08T17:24:34.665Z,95.88
2019-01-08T17:27:02.395Z,93.76
2019-01-08T17:32:38.592Z,91.74
2019-01-08T17:35:37.824Z,96.48
2019-01-08T17:38:39.318Z,93.98
2019-01-08T17:41:07.095Z,91.41
2019-01-08T17:44:06.503Z,92.36
2019-01-08T17:47:06.773Z,94.43
2019-01-08T17:53:08.024Z,93.92
2019-01-08T17:55:53.835Z,92.16
2019-01-08T17:58:33.789Z,91.99
2019-01-08T18:01:25.367Z,90.72
2019-01-08T18:13:38.560Z,89.23
2019-01-08T18:16:17.662Z,89.12
2019-01-08T18:25:10.023Z,91.04
2019-01-08T18:27:49.079Z,88.24
2019-01-08T18:33:51.708Z,91.05
2019-01-08T18:36:41.105Z,87.96
2019-01-08T18:39:30.153Z,89.99
2019-01-08T18:45:32.009Z,88.58
2019-01-08T18:48:32.331Z,92.00
2019-01-08T18:51:12.829Z,89.33
2019-01-08T18:54:12.418Z,92.39
2019-01-08T18:57:13.862Z,90.89
2019-01-08T18:59:53.617Z,90.43
2019-01-08T19:02:53.159Z,90.23
2019-01-08T19:05:53.365Z,91.15
2019-01-08T19:08:53.561Z,89.51
2019-01-08T19:15:04.580Z,90.40
2019-01-08T19:17:32.577Z,90.23
2019-01-08T19:20:32.331Z,90.32
2019-01-08T19:23:00.117Z,90.66
2019-01-08T19:25:27.869Z,90.58
2019-01-08T19:28:27.426Z,90.21
2019-01-08T19:31:26.776Z,90.56
2019-01-08T19:34:15.904Z,91.21
2019-01-08T19:36:55.190Z,91.96
2019-01-08T19:39:55.422Z,92.39
2019-01-08T19:42:23.196Z,92.21
2019-01-08T19:45:23.444Z,92.46
2019-01-08T19:47:51.371Z,91.88
2019-01-08T19:50:50.978Z,92.17
2019-01-08T19:53:39.657Z,92.56
2019-01-08T19:56:18.768Z,92.68
2019-01-08T19:58:57.807Z,91.99
2019-01-08T20:01:46.795Z,92.33
2019-01-08T20:04:46.448Z,93.03
2019-01-08T20:07:27.178Z,93.02
2019-01-08T20:10:26.681Z,92.54
2019-01-08T20:18:52.138Z,92.43
2019-01-08T20:21:52.079Z,92.54
2019-01-08T20:24:19.864Z,92.66
2019-01-08T20:27:20.260Z,92.48
2019-01-08T20:29:48.094Z,93.40
2019-01-08T20:32:27.227Z,94.47
2019-01-08T20:34:54.915Z,94.67
2019-01-08T20:37:22.669Z,94.98
2019-01-08T20:40:22.871Z,94.56
2019-01-08T20:43:22.910Z,94.70
2019-01-08T20:46:23.057Z,94.46
2019-01-08T20:49:22.356Z,94.01
2019-01-08T20:51:50.033Z,94.39
2019-01-08T20:54:49.566Z,94.11
2019-01-08T20:57:17.283Z,93.99
2019-01-08T21:00:17.180Z,94.15
2019-01-08T21:03:05.284Z,94.51
2019-01-08T21:09:25.829Z,93.86
2019-01-08T21:15:04.188Z,94.69
2019-01-08T21:17:44.248Z,95.38
2019-01-08T21:23:18.556Z,93.88
2019-01-08T21:28:47.552Z,94.23
2019-01-08T21:31:26.496Z,94.15
2019-01-08T21:34:15.481Z,94.27
2019-01-08T21:37:04.376Z,93.80
2019-01-08T21:40:04.719Z,93.95
2019-01-08T21:43:04.077Z,93.50
2019-01-08T21:46:04.025Z,94.55
2019-01-08T21:48:43.109Z,94.98
2019-01-08T21:51:44.935Z,94.42
2019-01-08T21:54:45.111Z,93.87
2019-01-08T21:57:32.363Z,93.39
2019-01-08T22:00:13.485Z,93.14
2019-01-08T22:03:21.862Z,93.57
2019-01-08T22:06:22.560Z,93.34
2019-01-08T22:09:11.556Z,93.52
2019-01-08T22:11:58.742Z,93.66
2019-01-08T22:14:40.199Z,94.19
2019-01-08T22:17:07.893Z,95.37
2019-01-08T22:19:36.120Z,95.02
2019-01-08T22:22:52.361Z,95.26
2019-01-08T22:26:06.396Z,95.53
2019-01-08T22:28:34.040Z,96.03
2019-01-08T22:34:02.464Z,96.67
2019-01-08T22:37:02.700Z,96.59
2019-01-08T22:39:30.407Z,96.99
2019-01-08T22:42:24.400Z,96.68
2019-01-08T22:45:13.346Z,96.72
2019-01-08T22:47:41.042Z,96.62
2019-01-08T22:50:41.253Z,96.37
2019-01-08T22:53:08.945Z,96.66
2019-01-08T22:58:37.806Z,97.08
2019-01-08T23:01:25.056Z,97.12
2019-01-08T23:04:14.077Z,97.00
2019-01-08T23:07:07.569Z,96.60
2019-01-08T23:10:07.205Z,96.58
2019-01-08T23:13:07.486Z,96.71
2019-01-08T23:18:14.495Z,96.67
2019-01-08T23:23:21.936Z,97.03
2019-01-08T23:25:51.535Z,96.79
2019-01-08T23:28:31.912Z,96.77
2019-01-08T23:31:10.953Z,97.06
2019-01-08T23:34:10.532Z,97.12
2019-01-08T23:37:10.701Z,97.05
2019-01-08T23:39:38.418Z,97.01
2019-01-08T23:42:38.124Z,97.24
2019-01-08T23:45:38.296Z,96.84
2019-01-08T23:48:19.789Z,96.73
2019-01-08T23:53:57.748Z,96.77
2019-01-08T23:56:57.822Z,97.01
2019-01-08T23:59:58.050Z,96.74
